Time;durP1;ratioP1;P1;durP2;ratioP2;P2;SDS_P1;SDS_P2;PMS_P1;PMS_P2;Temp;Humidity;BMP_temperature;BMP_pressure;BME280_temperature;BME280_humidity;BME280_pressure;Samples;Min_cycle;Max_cycle;Signal;HPM_P1;HPM_P2
2021/03/19 00:00:16;;;;;;;1.00;0.90;;;;;;;1.96;100.00;101308.44;5053059;28;20460;-71
2021/03/19 00:02:42;;;;;;;1.07;0.73;;;;;;;1.92;100.00;101317.13;5053090;28;20493;-69
2021/03/19 00:05:10;;;;;;;0.60;0.60;;;;;;;1.84;100.00;101306.75;5053019;28;20442;-70
2021/03/19 00:07:42;;;;;;;1.00;0.50;;;;;;;1.77;100.00;101307.66;5052978;28;20468;-68
2021/03/19 00:10:09;;;;;;;1.40;0.87;;;;;;;1.79;100.00;101306.59;5053062;28;20450;-69
2021/03/19 00:12:35;;;;;;;0.70;0.67;;;;;;;1.66;99.60;101302.25;5053038;28;20470;-70
2021/03/19 00:15:01;;;;;;;0.67;0.67;;;;;;;1.63;99.66;101319.50;5052962;28;20444;-69
2021/03/19 00:17:27;;;;;;;1.57;1.17;;;;;;;1.51;99.35;101316.78;5052820;28;20462;-70
2021/03/19 00:19:53;;;;;;;0.60;0.60;;;;;;;1.44;99.79;101316.03;5052975;28;20883;-71
2021/03/19 00:22:19;;;;;;;0.47;0.47;;;;;;;1.41;100.00;101319.13;5052892;28;20490;-70
2021/03/19 00:24:48;;;;;;;1.23;0.70;;;;;;;1.35;100.00;101319.22;5052925;28;20769;-69
2021/03/19 00:27:14;;;;;;;0.40;0.30;;;;;;;1.31;100.00;101312.69;5052556;28;20987;-69
2021/03/19 00:29:40;;;;;;;1.10;0.60;;;;;;;1.19;99.71;101316.09;5052922;28;20500;-70
2021/03/19 00:32:06;;;;;;;0.87;0.83;;;;;;;1.13;100.00;101318.84;5052440;28;20473;-69
2021/03/19 00:34:32;;;;;;;0.40;0.40;;;;;;;1.08;100.00;101324.81;5052829;28;20442;-71
2021/03/19 00:36:58;;;;;;;0.70;0.70;;;;;;;1.10;99.88;101328.06;5052659;28;20568;-71
2021/03/19 00:39:24;;;;;;;0.70;0.50;;;;;;;1.07;99.69;101331.19;5052799;28;20442;-71
2021/03/19 00:41:51;;;;;;;0.90;0.47;;;;;;;1.00;100.00;101333.09;5052568;28;21034;-71
2021/03/19 00:44:18;;;;;;;0.80;0.70;;;;;;;0.93;100.00;101341.19;5052311;28;20442;-71
2021/03/19 00:46:44;;;;;;;1.33;1.20;;;;;;;0.91;100.00;101342.41;5052715;28;20466;-69
2021/03/19 00:49:10;;;;;;;0.43;0.33;;;;;;;0.95;100.00;101351.63;5052691;28;20442;-70
2021/03/19 00:51:35;;;;;;;0.83;0.77;;;;;;;1.01;100.00;101348.06;5052635;28;20438;-70
2021/03/19 00:54:02;;;;;;;0.53;0.50;;;;;;;1.09;100.00;101354.97;5052007;28;20955;-69
2021/03/19 00:56:28;;;;;;;0.63;0.50;;;;;;;1.09;100.00;101355.78;5052105;28;20856;-70
2021/03/19 00:58:54;;;;;;;0.40;0.30;;;;;;;1.13;100.00;101358.84;5055267;28;20435;-70
2021/03/19 01:01:20;;;;;;;0.90;0.90;;;;;;;1.25;100.00;101354.44;5055594;28;20866;-70
2021/03/19 01:03:46;;;;;;;1.67;0.80;;;;;;;1.32;100.00;101349.81;5056100;28;20451;-71
2021/03/19 01:06:12;;;;;;;0.40;0.30;;;;;;;1.28;100.00;101353.97;5056097;28;20446;-70
2021/03/19 01:08:38;;;;;;;0.73;0.73;;;;;;;1.41;100.00;101358.38;5056026;28;20466;-69
2021/03/19 01:11:04;;;;;;;1.83;0.90;;;;;;;1.52;100.00;101365.66;5055925;28;20495;-70
2021/03/19 01:13:31;;;;;;;0.40;0.30;;;;;;;1.51;100.00;101361.34;5055702;28;20802;-70
2021/03/19 01:15:57;;;;;;;0.40;0.40;;;;;;;1.55;100.00;101365.22;5055989;28;20446;-71
2021/03/19 01:18:26;;;;;;;1.43;1.00;;;;;;;1.55;100.00;101362.56;5055847;28;20466;-70
2021/03/19 01:20:52;;;;;;;5.60;3.17;;;;;;;1.64;100.00;101363.88;5055753;28;20491;-71
2021/03/19 01:23:19;;;;;;;2.30;0.70;;;;;;;1.68;100.00;101369.56;5055826;28;20440;-70
2021/03/19 01:25:45;;;;;;;3.23;0.87;;;;;;;1.51;100.00;101369.38;5055766;28;20453;-70
2021/03/19 01:28:14;;;;;;;0.67;0.63;;;;;;;1.58;100.00;101367.44;5055577;28;20488;-70
2021/03/19 01:30:41;;;;;;;0.40;0.33;;;;;;;1.50;100.00;101363.19;5055731;28;20544;-73
2021/03/19 01:33:08;;;;;;;0.60;0.60;;;;;;;1.59;100.00;101371.72;5056618;28;20450;-72
2021/03/19 01:35:36;;;;;;;0.53;0.53;;;;;;;1.55;100.00;101367.88;5055811;28;20813;-71
2021/03/19 01:38:03;;;;;;;2.70;1.13;;;;;;;1.57;100.00;101367.66;5056684;28;20580;-71
2021/03/19 01:40:32;;;;;;;0.50;0.40;;;;;;;1.54;100.00;101363.56;5055522;28;20445;-71
2021/03/19 01:42:58;;;;;;;0.50;0.43;;;;;;;1.54;100.00;101368.91;5055378;28;20492;-72
2021/03/19 01:45:47;;;;;;;0.83;0.60;;;;;;;1.52;100.00;101360.31;5055390;28;20449;-71
2021/03/19 01:48:51;;;;;;;0.40;0.40;;;;;;;1.56;100.00;101361.50;5055443;28;20470;-71
2021/03/19 01:51:54;;;;;;;1.27;0.57;;;;;;;1.53;100.00;101361.94;5055285;28;20800;-71
2021/03/19 01:54:57;;;;;;;6.97;1.33;;;;;;;1.42;100.00;101360.03;5055229;28;20430;-72
2021/03/19 01:58:15;;;;;;;0.57;0.57;;;;;;;1.34;100.00;101349.63;5054836;28;20489;-71
2021/03/19 02:01:18;;;;;;;0.60;0.50;;;;;;;1.21;100.00;101361.25;4993423;28;20954;-71
2021/03/19 02:04:21;;;;;;;0.40;0.40;;;;;;;1.23;100.00;101357.31;4993507;28;20988;-71
2021/03/19 02:07:24;;;;;;;0.80;0.60;;;;;;;1.13;100.00;101362.31;5051267;28;20470;-72
2021/03/19 02:10:27;;;;;;;0.40;0.30;;;;;;;1.14;100.00;101371.97;5054472;28;20446;-72
2021/03/19 02:13:31;;;;;;;0.63;0.63;;;;;;;1.17;100.00;101362.72;5054835;28;20446;-74
2021/03/19 02:16:34;;;;;;;0.70;0.70;;;;;;;1.04;100.00;101368.97;5054820;28;20442;-70
2021/03/19 02:19:45;;;;;;;0.57;0.57;;;;;;;1.10;100.00;101373.44;5054444;28;20951;-71
2021/03/19 02:22:48;;;;;;;0.60;0.60;;;;;;;1.01;100.00;101369.41;5026547;28;20489;-70
2021/03/19 02:25:51;;;;;;;0.40;0.40;;;;;;;0.89;100.00;101371.16;5054248;28;20955;-70
2021/03/19 02:28:53;;;;;;;1.00;0.90;;;;;;;0.94;100.00;101369.47;5054132;28;21014;-71
2021/03/19 02:31:58;;;;;;;3.70;1.23;;;;;;;0.94;100.00;101369.47;5023804;28;20499;-70
2021/03/19 02:34:30;;;;;;;0.50;0.40;;;;;;;1.04;100.00;101376.16;5051852;28;20466;-71
2021/03/19 02:36:56;;;;;;;3.20;1.00;;;;;;;1.17;100.00;101379.53;5054331;28;20458;-72
2021/03/19 02:39:22;;;;;;;0.50;0.47;;;;;;;1.22;100.00;101387.69;5054405;28;20442;-71
2021/03/19 02:41:48;;;;;;;2.40;1.03;;;;;;;1.23;100.00;101383.97;5054436;28;20544;-70
2021/03/19 02:44:14;;;;;;;0.90;0.60;;;;;;;1.22;100.00;101387.69;5054302;28;20453;-71
2021/03/19 02:46:41;;;;;;;0.90;0.73;;;;;;;1.17;100.00;101389.41;5054143;28;20504;-72
2021/03/19 02:49:07;;;;;;;0.60;0.60;;;;;;;1.17;100.00;101389.41;5053832;28;20446;-70
2021/03/19 02:51:33;;;;;;;0.90;0.40;;;;;;;1.12;100.00;101395.38;5054110;28;20533;-71
2021/03/19 02:53:59;;;;;;;0.73;0.50;;;;;;;1.06;100.00;101393.56;5054188;28;20914;-72
2021/03/19 02:56:25;;;;;;;1.13;1.03;;;;;;;1.14;100.00;101395.97;5053797;28;20481;-71
2021/03/19 02:58:51;;;;;;;10.23;1.37;;;;;;;1.10;100.00;101392.09;5053937;28;20466;-72
2021/03/19 03:01:17;;;;;;;0.40;0.30;;;;;;;1.11;100.00;101399.09;5053876;28;20493;-71
2021/03/19 03:03:43;;;;;;;0.87;0.87;;;;;;;1.17;100.00;101400.06;5053770;28;20503;-72
2021/03/19 03:06:10;;;;;;;0.40;0.30;;;;;;;1.19;100.00;101401.47;5053931;28;20442;-71
2021/03/19 03:08:36;;;;;;;2.90;1.70;;;;;;;1.20;100.00;101402.31;5053641;28;20462;-70
2021/03/19 03:11:02;;;;;;;1.07;1.07;;;;;;;1.04;100.00;101406.31;5053683;28;20438;-71
2021/03/19 03:13:29;;;;;;;0.47;0.43;;;;;;;0.99;100.00;101403.50;5053755;28;20450;-71
2021/03/19 03:15:55;;;;;;;1.33;0.83;;;;;;;1.11;100.00;101409.75;5053346;28;20825;-72
2021/03/19 03:18:22;;;;;;;2.50;0.87;;;;;;;1.23;100.00;101413.34;5053206;28;20913;-71
2021/03/19 03:20:51;;;;;;;2.13;0.80;;;;;;;1.32;100.00;101407.72;5052843;28;20434;-71
2021/03/19 03:23:19;;;;;;;1.70;1.60;;;;;;;1.38;100.00;101414.88;5053324;28;20809;-69
2021/03/19 03:25:46;;;;;;;0.77;0.77;;;;;;;1.38;100.00;101407.69;5053478;28;20434;-69
2021/03/19 03:28:13;;;;;;;1.67;1.57;;;;;;;1.37;100.00;101416.69;5053296;28;20458;-70
2021/03/19 03:30:41;;;;;;;1.17;1.07;;;;;;;1.32;100.00;101410.41;5053114;28;20957;-70
2021/03/19 03:33:08;;;;;;;0.90;0.80;;;;;;;1.45;100.00;101420.94;5053363;28;20496;-71
2021/03/19 03:35:35;;;;;;;0.93;0.93;;;;;;;1.54;100.00;101416.97;5053309;28;20491;-70
2021/03/19 03:38:05;;;;;;;0.40;0.30;;;;;;;1.53;100.00;101412.66;5052994;28;21006;-70
2021/03/19 03:40:35;;;;;;;1.17;0.80;;;;;;;1.53;100.00;101420.66;5053037;28;20431;-70
2021/03/19 03:43:01;;;;;;;0.50;0.40;;;;;;;1.45;100.00;101421.75;5053157;28;20478;-70
2021/03/19 03:45:27;;;;;;;1.83;1.40;;;;;;;1.42;100.00;101419.56;5053080;28;20952;-70
2021/03/19 03:47:53;;;;;;;0.60;0.53;;;;;;;1.35;100.00;101415.31;5053092;28;20462;-70
2021/03/19 03:50:27;;;;;;;1.33;1.23;;;;;;;1.34;100.00;101411.81;5053236;28;20438;-70
2021/03/19 03:52:53;;;;;;;1.63;1.53;;;;;;;1.37;100.00;101415.88;5053177;28;20426;-71
2021/03/19 03:55:21;;;;;;;1.37;0.60;;;;;;;1.29;100.00;101417.00;5053108;28;20962;-70
2021/03/19 03:57:47;;;;;;;1.80;1.70;;;;;;;1.27;100.00;101416.38;5052816;28;20478;-70
2021/03/19 04:00:16;;;;;;;4.20;1.57;;;;;;;1.20;100.00;101415.66;5053034;28;20497;-70
2021/03/19 04:02:42;;;;;;;2.97;2.80;;;;;;;1.12;100.00;101416.72;5053525;28;20482;-71
2021/03/19 04:05:11;;;;;;;1.00;1.00;;;;;;;1.12;100.00;101424.72;5054118;28;20471;-71
2021/03/19 04:07:37;;;;;;;0.87;0.70;;;;;;;1.06;100.00;101436.25;5053190;28;20465;-69
2021/03/19 04:10:05;;;;;;;0.70;0.63;;;;;;;0.93;100.00;101431.00;5053149;28;20958;-71
2021/03/19 04:12:31;;;;;;;3.03;2.83;;;;;;;0.93;100.00;101431.00;5053106;28;20831;-71
2021/03/19 04:14:57;;;;;;;2.50;1.60;;;;;;;0.88;100.00;101433.50;5052943;28;20446;-70
2021/03/19 04:17:26;;;;;;;1.50;1.40;;;;;;;0.95;100.00;101439.63;5052931;28;20523;-69
2021/03/19 04:19:52;;;;;;;5.37;3.00;;;;;;;0.90;100.00;101432.28;5052961;28;20435;-71
2021/03/19 04:22:18;;;;;;;0.67;0.67;;;;;;;0.76;100.00;101436.06;5052731;28;20481;-70
2021/03/19 04:24:45;;;;;;;0.50;0.50;;;;;;;0.64;100.00;101435.94;5052938;28;20446;-70
2021/03/19 04:27:14;;;;;;;1.07;1.00;;;;;;;0.72;100.00;101441.00;5052491;28;20979;-70
2021/03/19 04:29:41;;;;;;;0.60;0.50;;;;;;;0.78;100.00;101449.19;5052774;28;20446;-70
2021/03/19 04:32:07;;;;;;;0.40;0.30;;;;;;;0.71;100.00;101444.72;5052900;28;20442;-70
2021/03/19 04:34:33;;;;;;;3.10;2.03;;;;;;;0.68;100.00;101444.31;5056693;28;20576;-70
2021/03/19 04:36:59;;;;;;;2.57;2.37;;;;;;;0.53;100.00;101457.09;5056676;28;20469;-72
2021/03/19 04:39:28;;;;;;;4.80;1.17;;;;;;;0.60;100.00;101452.56;5056647;28;20454;-72
2021/03/19 04:41:57;;;;;;;0.70;0.70;;;;;;;0.65;100.00;101460.72;5056507;28;20573;-72
2021/03/19 04:44:25;;;;;;;1.17;1.07;;;;;;;0.75;100.00;101461.06;5056294;28;20962;-72
2021/03/19 04:46:52;;;;;;;2.50;1.10;;;;;;;0.79;100.00;101466.81;5056408;28;20466;-72
2021/03/19 04:49:20;;;;;;;9.83;1.67;;;;;;;0.81;100.00;101470.91;5056511;28;20826;-71
2021/03/19 04:51:46;;;;;;;0.90;0.80;;;;;;;0.78;100.00;101466.00;5056394;28;20446;-71
2021/03/19 04:54:12;;;;;;;0.60;0.60;;;;;;;0.90;100.00;101471.47;5056038;28;20449;-71
2021/03/19 04:56:38;;;;;;;0.93;0.93;;;;;;;0.82;100.00;101474.38;5056156;28;20460;-71
2021/03/19 04:59:05;;;;;;;1.13;1.10;;;;;;;0.80;100.00;101473.75;5057819;28;20509;-71
2021/03/19 05:01:31;;;;;;;0.83;0.83;;;;;;;0.59;100.00;101477.59;5056182;28;20493;-72
2021/03/19 05:03:58;;;;;;;2.40;1.33;;;;;;;0.70;100.00;101475.03;5056255;28;20446;-71
2021/03/19 05:06:24;;;;;;;0.50;0.50;;;;;;;0.74;100.00;101483.44;5056052;28;20472;-72
2021/03/19 05:08:50;;;;;;;1.37;1.27;;;;;;;0.83;100.00;101484.00;5056115;28;20453;-71
2021/03/19 05:11:18;;;;;;;0.40;0.30;;;;;;;0.93;100.00;101474.53;5055968;28;20470;-70
2021/03/19 05:13:45;;;;;;;2.87;1.17;;;;;;;1.00;100.00;101482.47;5055998;28;20446;-71
2021/03/19 05:16:11;;;;;;;0.97;0.97;;;;;;;1.01;100.00;101481.44;5056072;28;20788;-71
2021/03/19 05:18:37;;;;;;;0.70;0.70;;;;;;;1.00;100.00;101482.47;5055854;28;20592;-70
2021/03/19 05:21:04;;;;;;;2.00;0.83;;;;;;;0.97;100.00;101480.22;5055772;28;20442;-72
2021/03/19 05:23:31;;;;;;;1.57;1.37;;;;;;;0.99;100.00;101468.31;5055849;28;20491;-71
2021/03/19 05:25:58;;;;;;;0.40;0.30;;;;;;;0.99;100.00;101472.84;5055770;28;20491;-72
2021/03/19 05:28:24;;;;;;;0.60;0.60;;;;;;;1.06;100.00;101472.78;5055791;28;20704;-70
2021/03/19 05:30:53;;;;;;;1.10;0.60;;;;;;;1.09;100.00;101478.50;5055661;28;20462;-72
2021/03/19 05:33:19;;;;;;;1.67;0.60;;;;;;;1.12;100.00;101482.59;5055610;28;20438;-72
2021/03/19 05:35:45;;;;;;;1.70;0.70;;;;;;;1.11;99.98;101481.78;5055682;28;20446;-71
2021/03/19 05:38:12;;;;;;;1.90;1.80;;;;;;;1.04;99.81;101489.00;5055566;28;20501;-72
2021/03/19 05:40:42;;;;;;;0.40;0.30;;;;;;;0.99;100.00;101488.84;5055282;28;20450;-71
2021/03/19 05:43:28;;;;;;;3.10;0.73;;;;;;;0.92;100.00;101490.72;5055023;28;20541;-72
2021/03/19 05:45:58;;;;;;;1.60;1.23;;;;;;;0.98;100.00;101504.03;5055383;28;20453;-72
2021/03/19 05:48:27;;;;;;;0.60;0.53;;;;;;;0.94;100.00;101502.00;5055283;28;20478;-72
2021/03/19 05:50:53;;;;;;;2.77;2.57;;;;;;;0.89;100.00;101508.00;5055351;28;20442;-72
2021/03/19 05:53:22;;;;;;;2.10;0.87;;;;;;;1.00;100.00;101506.47;5055256;28;20485;-71
2021/03/19 05:55:49;;;;;;;0.53;0.50;;;;;;;1.17;100.00;101506.78;5055303;28;20442;-72
2021/03/19 05:58:26;;;;;;;1.37;0.67;;;;;;;1.27;100.00;101513.25;5054800;28;20478;-71
2021/03/19 06:00:55;;;;;;;1.87;0.80;;;;;;;1.25;100.00;101519.88;5055277;28;20430;-72
2021/03/19 06:03:21;;;;;;;1.07;0.70;;;;;;;1.01;100.00;101518.78;5055117;28;20478;-72
2021/03/19 06:05:59;;;;;;;0.60;0.60;;;;;;;1.21;100.00;101524.00;5055074;28;20525;-73
2021/03/19 06:08:33;;;;;;;0.40;0.30;;;;;;;1.24;100.00;101532.41;5055119;28;20457;-73
2021/03/19 06:11:10;;;;;;;0.60;0.50;;;;;;;1.07;99.44;101528.59;5054964;28;20423;-72
2021/03/19 06:13:48;;;;;;;0.80;0.80;;;;;;;1.15;100.00;101530.19;5054928;28;20427;-72
2021/03/19 06:16:25;;;;;;;1.73;1.63;;;;;;;1.26;99.85;101527.66;5054596;28;20414;-72
2021/03/19 06:18:52;;;;;;;0.57;0.57;;;;;;;1.28;98.89;101535.44;5054913;28;20422;-74
2021/03/19 06:21:24;;;;;;;0.90;0.67;;;;;;;1.23;98.30;101537.94;5054385;28;20446;-72
2021/03/19 06:24:07;;;;;;;0.40;0.40;;;;;;;1.33;98.08;101542.78;5055337;28;20791;-72
2021/03/19 06:26:37;;;;;;;5.30;1.00;;;;;;;1.30;97.62;101554.72;5054723;28;20434;-74
2021/03/19 06:29:13;;;;;;;1.20;1.07;;;;;;;1.04;97.78;101547.69;5054340;28;20946;-74
2021/03/19 06:31:40;;;;;;;0.60;0.50;;;;;;;1.12;99.16;101544.78;5054966;28;20423;-73
2021/03/19 06:34:11;;;;;;;5.20;2.00;;;;;;;1.26;98.39;101548.19;5054613;28;20923;-73
2021/03/19 06:37:00;;;;;;;0.50;0.40;;;;;;;1.29;99.11;101544.28;5054379;28;20433;-71
2021/03/19 06:39:29;;;;;;;0.80;0.70;;;;;;;1.37;98.68;101552.00;5049951;28;20458;-73
2021/03/19 06:42:10;;;;;;;0.50;0.50;;;;;;;1.30;97.89;101553.91;5054263;28;20539;-73
2021/03/19 06:44:37;;;;;;;0.40;0.30;;;;;;;1.39;97.52;101561.44;5054300;28;20438;-72
2021/03/19 06:47:06;;;;;;;0.80;0.70;;;;;;;1.28;96.40;101562.13;5054180;28;20465;-73
2021/03/19 06:49:47;;;;;;;0.40;0.30;;;;;;;1.09;97.98;101569.22;5054156;28;20445;-73
2021/03/19 06:52:24;;;;;;;0.70;0.70;;;;;;;0.92;98.18;101579.56;5054308;28;20422;-73
2021/03/19 06:54:54;;;;;;;1.63;1.00;;;;;;;0.79;98.60;101584.94;5053867;28;20528;-74
2021/03/19 06:57:22;;;;;;;3.10;1.23;;;;;;;0.97;98.41;101584.25;5053511;28;20466;-73
2021/03/19 06:59:49;;;;;;;9.27;1.90;;;;;;;1.17;98.14;101582.31;5053792;28;20853;-74
2021/03/19 07:02:59;;;;;;;0.40;0.33;;;;;;;1.12;97.59;101584.81;5053912;28;20490;-71
2021/03/19 07:05:44;;;;;;;1.37;1.30;;;;;;;1.18;98.01;101594.59;4992273;28;20449;-73
2021/03/19 07:08:17;;;;;;;1.80;0.60;;;;;;;1.20;98.04;101597.09;5052380;28;20490;-73
2021/03/19 07:11:00;;;;;;;1.33;1.33;;;;;;;1.17;98.12;101592.97;5053999;28;20430;-73
2021/03/19 07:13:57;;;;;;;0.97;0.87;;;;;;;1.32;97.94;101605.22;5054298;28;20423;-72
2021/03/19 07:16:28;;;;;;;1.30;1.23;;;;;;;1.45;97.57;101605.94;5053390;28;20476;-69
2021/03/19 07:19:13;;;;;;;0.40;0.37;;;;;;;1.51;97.15;101607.78;5053402;28;20434;-69
2021/03/19 07:22:10;;;;;;;1.13;0.60;;;;;;;1.52;97.39;101606.72;5053502;28;20472;-71
2021/03/19 07:24:57;;;;;;;0.53;0.50;;;;;;;1.69;97.27;101614.22;5053591;28;20433;-71
2021/03/19 07:27:37;;;;;;;0.90;0.90;;;;;;;1.76;97.01;101614.97;5053554;28;20466;-72
2021/03/19 07:30:15;;;;;;;1.73;1.63;;;;;;;1.75;96.20;101621.38;5053404;28;20434;-72
2021/03/19 07:33:19;;;;;;;3.30;0.90;;;;;;;1.84;96.14;101611.22;5053534;28;20771;-71
2021/03/19 07:35:59;;;;;;;4.53;0.50;;;;;;;1.95;96.45;101613.22;5053378;28;20418;-72
2021/03/19 07:39:00;;;;;;;0.50;0.50;;;;;;;1.92;95.38;101614.44;5053426;28;20454;-72
2021/03/19 07:41:46;;;;;;;0.47;0.40;;;;;;;1.95;95.75;101622.03;5052975;28;20428;-72
2021/03/19 07:44:25;;;;;;;2.87;2.67;;;;;;;1.83;95.52;101636.31;5053360;28;20445;-72
2021/03/19 07:47:03;;;;;;;1.33;1.23;;;;;;;1.94;95.54;101636.41;5053194;28;20461;-72
2021/03/19 07:49:44;;;;;;;1.00;0.87;;;;;;;1.96;95.49;101641.56;5053334;28;20431;-72
2021/03/19 07:52:25;;;;;;;0.93;0.93;;;;;;;2.11;94.76;101650.06;5053352;28;20440;-72
2021/03/19 07:55:00;;;;;;;1.40;1.17;;;;;;;2.11;93.95;101636.69;5053227;28;20422;-73
2021/03/19 07:57:34;;;;;;;1.67;0.87;;;;;;;2.15;94.14;101645.91;5052809;28;20511;-71
2021/03/19 08:00:05;;;;;;;1.80;1.70;;;;;;;2.15;94.35;101643.25;5053178;28;20430;-71
2021/03/19 08:03:03;;;;;;;0.50;0.50;;;;;;;2.30;94.06;101639.41;5053201;28;20480;-72
2021/03/19 08:05:39;;;;;;;1.03;1.03;;;;;;;2.50;93.16;101645.38;5052353;28;20461;-72
2021/03/19 08:08:15;;;;;;;0.70;0.63;;;;;;;2.53;93.25;101661.00;5056284;28;20453;-72
2021/03/19 08:11:00;;;;;;;2.10;1.83;;;;;;;2.37;93.32;101661.56;5057173;28;20430;-72
2021/03/19 08:13:43;;;;;;;5.03;1.63;;;;;;;2.63;93.70;101658.63;5057107;28;20419;-72
2021/03/19 08:16:17;;;;;;;0.67;0.50;;;;;;;2.66;92.94;101655.53;5057148;28;20493;-72
2021/03/19 08:18:49;;;;;;;10.67;1.83;;;;;;;2.96;92.21;101649.41;5056993;28;20469;-71
2021/03/19 08:21:24;;;;;;;1.60;1.13;;;;;;;3.05;92.63;101666.78;5056986;28;20433;-72
2021/03/19 08:24:03;;;;;;;1.43;1.33;;;;;;;2.91;92.16;101674.16;5057154;28;20491;-73
2021/03/19 08:26:36;;;;;;;3.03;1.70;;;;;;;3.12;92.01;101669.41;5056781;28;20419;-73
2021/03/19 08:29:07;;;;;;;0.50;0.30;;;;;;;3.29;92.54;101673.94;5056903;28;20430;-72
2021/03/19 08:31:45;;;;;;;0.90;0.90;;;;;;;3.31;92.29;101673.69;5056726;28;20425;-72
2021/03/19 08:34:23;;;;;;;0.40;0.40;;;;;;;3.38;92.80;101676.28;5056849;28;20508;-71
2021/03/19 08:36:51;;;;;;;0.80;0.80;;;;;;;3.49;92.73;101687.03;5056960;28;20571;-72
2021/03/19 08:39:25;;;;;;;4.53;1.57;;;;;;;3.39;91.80;101669.88;5056691;28;20516;-71
2021/03/19 08:41:57;;;;;;;2.50;1.20;;;;;;;3.54;91.85;101672.97;5056225;28;21032;-71
2021/03/19 08:44:27;;;;;;;1.43;0.83;;;;;;;3.21;91.15;101668.88;5056627;28;20434;-71
2021/03/19 08:46:56;;;;;;;1.63;1.03;;;;;;;3.38;91.76;101679.78;5056422;28;20466;-71
2021/03/19 08:49:48;;;;;;;1.50;1.43;;;;;;;3.58;91.24;101679.50;5056553;28;20503;-71
2021/03/19 08:52:33;;;;;;;1.67;1.57;;;;;;;3.69;90.87;101686.78;5041778;28;20484;-71
2021/03/19 08:55:22;;;;;;;1.73;1.10;;;;;;;3.79;89.39;101687.03;5038655;28;20484;-71
2021/03/19 08:57:50;;;;;;;2.10;1.40;;;;;;;3.72;89.22;101686.34;5056035;28;20478;-71
2021/03/19 09:01:01;;;;;;;1.43;0.83;;;;;;;3.59;89.02;101683.84;5057937;28;20923;-69
2021/03/19 09:03:51;;;;;;;1.07;0.97;;;;;;;3.87;89.80;101675.19;4994626;28;21013;-67
2021/03/19 09:06:19;;;;;;;1.80;1.33;;;;;;;4.17;88.38;101677.00;5051607;28;20461;-71
2021/03/19 09:09:00;;;;;;;1.60;1.00;;;;;;;4.42;87.61;101690.19;5056023;28;20448;-69
2021/03/19 09:12:02;;;;;;;3.03;1.17;;;;;;;4.42;86.79;101696.34;5056312;28;20484;-69
2021/03/19 09:14:34;;;;;;;3.37;1.27;;;;;;;4.39;84.74;101690.66;5055950;28;20441;-69
2021/03/19 09:17:00;;;;;;;0.90;0.63;;;;;;;4.18;85.13;101689.34;5055529;28;20458;-69
2021/03/19 09:19:45;;;;;;;0.50;0.50;;;;;;;4.20;85.38;101693.41;5055151;28;20442;-68
2021/03/19 09:22:33;;;;;;;0.60;0.50;;;;;;;4.36;86.41;101691.13;5055805;28;20489;-68
2021/03/19 09:25:19;;;;;;;0.97;0.97;;;;;;;4.47;86.05;101692.97;5056104;28;20434;-69
2021/03/19 09:27:48;;;;;;;0.70;0.70;;;;;;;4.19;85.79;101697.16;5055943;28;21049;-68
2021/03/19 09:30:25;;;;;;;1.53;0.83;;;;;;;4.08;86.13;101708.69;5055663;28;20557;-69
2021/03/19 09:32:53;;;;;;;3.43;3.13;;;;;;;4.14;87.43;101707.75;5055263;28;20797;-69
2021/03/19 09:35:42;;;;;;;4.53;1.30;;;;;;;3.91;86.41;101713.88;5055324;28;20442;-69
2021/03/19 09:38:13;;;;;;;0.90;0.60;;;;;;;3.93;86.30;101719.00;5050858;28;20531;-69
2021/03/19 09:40:48;;;;;;;0.57;0.53;;;;;;;3.86;84.97;101720.97;5055549;28;20488;-69
2021/03/19 09:43:38;;;;;;;0.57;0.40;;;;;;;3.97;85.72;101712.97;5054972;28;21057;-69
2021/03/19 09:46:13;;;;;;;1.07;1.07;;;;;;;4.10;85.55;101719.19;5055390;28;20493;-69
2021/03/19 09:48:39;;;;;;;1.83;1.40;;;;;;;4.05;84.00;101719.88;5055278;28;20454;-68
2021/03/19 09:51:40;;;;;;;0.40;0.30;;;;;;;4.07;85.72;101722.31;5055345;28;20855;-69
2021/03/19 09:54:34;;;;;;;0.40;0.30;;;;;;;4.08;84.27;101730.13;5055366;28;20426;-68
2021/03/19 09:57:04;;;;;;;0.40;0.30;;;;;;;4.31;83.62;101729.38;5041164;28;21054;-69
2021/03/19 09:59:33;;;;;;;0.40;0.30;;;;;;;4.70;82.56;101730.56;5054766;28;20849;-69
2021/03/19 10:01:59;;;;;;;0.93;0.53;;;;;;;4.90;81.63;101746.31;5055057;28;20532;-69
2021/03/19 10:04:32;;;;;;;0.50;0.40;;;;;;;4.87;81.82;101732.53;5055038;28;20446;-69
2021/03/19 10:07:00;;;;;;;1.57;0.73;;;;;;;5.00;78.48;101732.28;5054799;28;20463;-68
2021/03/19 10:09:27;;;;;;;3.43;1.47;;;;;;;5.37;79.46;101727.44;5054985;28;20533;-69
2021/03/19 10:11:57;;;;;;;0.50;0.50;;;;;;;5.76;79.46;101727.66;5054936;28;20832;-71
2021/03/19 10:14:28;;;;;;;0.40;0.40;;;;;;;6.05;77.21;101717.72;5054914;28;20434;-68
2021/03/19 10:17:07;;;;;;;1.00;0.53;;;;;;;5.60;75.95;101723.03;5054489;28;20979;-69
2021/03/19 10:19:36;;;;;;;0.40;0.20;;;;;;;5.64;77.09;101729.56;5054747;28;20446;-68
2021/03/19 10:22:05;;;;;;;0.40;0.30;;;;;;;5.54;76.88;101716.75;5054661;28;20492;-69
2021/03/19 10:24:31;;;;;;;0.40;0.30;;;;;;;5.39;76.90;101728.00;5054754;28;20450;-68
2021/03/19 10:27:02;;;;;;;0.50;0.50;;;;;;;5.28;76.50;101724.31;5054662;28;20462;-69
2021/03/19 10:29:31;;;;;;;0.40;0.30;;;;;;;5.31;79.07;101723.84;5054427;28;20431;-68
2021/03/19 10:31:59;;;;;;;1.67;0.73;;;;;;;5.46;78.97;101719.81;5053895;28;20438;-69
2021/03/19 10:34:38;;;;;;;1.33;0.50;;;;;;;5.59;78.82;101716.03;5054321;28;20442;-68
2021/03/19 10:37:17;;;;;;;0.70;0.50;;;;;;;5.78;77.76;101720.16;5054175;28;21010;-69
2021/03/19 10:39:47;;;;;;;0.40;0.30;;;;;;;5.76;76.08;101728.47;5054455;28;20430;-69
2021/03/19 10:42:22;;;;;;;0.40;0.30;;;;;;;5.82;76.33;101721.31;5054303;28;20489;-67
2021/03/19 10:45:02;;;;;;;0.40;0.30;;;;;;;5.76;72.09;101722.28;5054249;28;20430;-69
2021/03/19 10:47:31;;;;;;;0.40;0.30;;;;;;;5.80;72.29;101723.44;5054180;28;20468;-68
2021/03/19 10:50:00;;;;;;;0.40;0.30;;;;;;;5.92;73.51;101720.72;5054289;28;20460;-69
2021/03/19 10:52:33;;;;;;;0.40;0.30;;;;;;;6.15;70.96;101717.88;5054135;28;20435;-68
2021/03/19 10:55:03;;;;;;;0.40;0.30;;;;;;;5.99;68.87;101718.69;5054126;28;20818;-69
2021/03/19 10:57:35;;;;;;;0.40;0.30;;;;;;;5.99;69.57;101724.06;5053815;28;20857;-67
2021/03/19 11:00:22;;;;;;;0.60;0.60;;;;;;;5.94;71.48;101734.75;5054112;28;20434;-69
2021/03/19 11:02:55;;;;;;;1.40;0.73;;;;;;;5.70;74.33;101723.22;5053905;28;20842;-69
2021/03/19 11:05:21;;;;;;;0.60;0.60;;;;;;;5.63;74.87;101717.19;5054122;28;20414;-68
2021/03/19 11:07:48;;;;;;;1.37;1.37;;;;;;;5.62;75.30;101727.09;5053987;28;20458;-67
2021/03/19 11:10:23;;;;;;;0.40;0.30;;;;;;;5.76;74.77;101723.09;5053894;28;20454;-67
2021/03/19 11:12:52;;;;;;;1.07;0.97;;;;;;;6.22;74.73;101739.25;5053603;28;20481;-69
2021/03/19 11:15:21;;;;;;;0.40;0.30;;;;;;;5.96;73.89;101743.38;5053801;28;20446;-68
2021/03/19 11:17:48;;;;;;;0.50;0.40;;;;;;;5.37;76.71;101751.63;5053322;28;20823;-68
2021/03/19 11:20:34;;;;;;;0.40;0.30;;;;;;;4.77;81.45;101751.91;5053590;28;20434;-68
2021/03/19 11:23:01;;;;;;;0.40;0.30;;;;;;;4.73;83.95;101762.28;5053464;28;20470;-69
2021/03/19 11:25:44;;;;;;;0.40;0.33;;;;;;;4.47;83.48;101752.84;5053543;28;20447;-68
2021/03/19 11:28:23;;;;;;;0.40;0.30;;;;;;;4.81;78.83;101748.53;5055052;28;20470;-68
2021/03/19 11:30:49;;;;;;;0.50;0.50;;;;;;;5.85;73.46;101757.66;5053520;28;20442;-69
2021/03/19 11:33:17;;;;;;;0.40;0.27;;;;;;;7.04;71.41;101755.63;5053445;28;20461;-68
2021/03/19 11:36:03;;;;;;;0.60;0.40;;;;;;;8.29;63.08;101761.06;5053468;28;20442;-69
2021/03/19 11:38:34;;;;;;;0.40;0.30;;;;;;;9.21;61.73;101772.56;5053731;28;20489;-69
2021/03/19 11:41:00;;;;;;;0.40;0.30;;;;;;;10.08;57.71;101748.47;5054014;28;20438;-69
2021/03/19 11:43:27;;;;;;;0.50;0.40;;;;;;;10.92;54.92;101752.53;5053073;28;20482;-68
2021/03/19 11:45:53;;;;;;;0.60;0.50;;;;;;;9.94;54.69;101748.19;5052906;28;20442;-69
2021/03/19 11:48:26;;;;;;;0.40;0.30;;;;;;;9.10;56.36;101760.06;5053050;28;20450;-67
2021/03/19 11:50:54;;;;;;;1.37;0.50;;;;;;;8.50;58.86;101751.28;5053146;28;20434;-69
2021/03/19 11:53:24;;;;;;;0.40;0.40;;;;;;;8.05;59.50;101754.34;5053174;28;20439;-68
2021/03/19 11:55:53;;;;;;;0.40;0.30;;;;;;;7.10;58.87;101758.38;5053119;28;20448;-71
2021/03/19 11:58:23;;;;;;;0.40;0.30;;;;;;;6.72;59.82;101759.97;5052884;28;20470;-69